sensor_id;sensor_type;location;lat;lon;timestamp;P1;durP1;ratioP1;P2;durP2;ratioP2
65469;SDS011;52067;50.710;14.492;2024-02-23T00:01:23;3.33;;;1.60;;
65469;SDS011;52067;50.710;14.492;2024-02-23T00:03:50;2.63;;;1.10;;
65469;SDS011;52067;50.710;14.492;2024-02-23T00:06:15;2.13;;;1.23;;
65469;SDS011;52067;50.710;14.492;2024-02-23T00:08:40;1.95;;;1.40;;
65469;SDS011;52067;50.710;14.492;2024-02-23T00:11:06;2.70;;;1.00;;
65469;SDS011;52067;50.710;14.492;2024-02-23T00:13:32;3.15;;;1.15;;
65469;SDS011;52067;50.710;14.492;2024-02-23T00:15:57;1.33;;;1.00;;
65469;SDS011;52067;50.710;14.492;2024-02-23T00:18:23;2.83;;;1.10;;
65469;SDS011;52067;50.710;14.492;2024-02-23T00:20:48;2.30;;;1.20;;
65469;SDS011;52067;50.710;14.492;2024-02-23T00:23:13;1.42;;;1.23;;
65469;SDS011;52067;50.710;14.492;2024-02-23T00:25:39;3.47;;;1.50;;
65469;SDS011;52067;50.710;14.492;2024-02-23T00:28:04;1.40;;;1.20;;
65469;SDS011;52067;50.710;14.492;2024-02-23T00:30:30;2.53;;;1.65;;
65469;SDS011;52067;50.710;14.492;2024-02-23T00:32:55;2.45;;;1.50;;
65469;SDS011;52067;50.710;14.492;2024-02-23T00:35:21;3.53;;;1.60;;
65469;SDS011;52067;50.710;14.492;2024-02-23T00:37:46;2.30;;;1.20;;
65469;SDS011;52067;50.710;14.492;2024-02-23T00:40:12;2.10;;;1.52;;
65469;SDS011;52067;50.710;14.492;2024-02-23T00:42:38;2.35;;;1.45;;
65469;SDS011;52067;50.710;14.492;2024-02-23T00:45:04;2.55;;;1.20;;
65469;SDS011;52067;50.710;14.492;2024-02-23T00:47:29;2.85;;;1.52;;
65469;SDS011;52067;50.710;14.492;2024-02-23T00:49:55;2.80;;;1.60;;
65469;SDS011;52067;50.710;14.492;2024-02-23T00:52:20;3.30;;;1.88;;
65469;SDS011;52067;50.710;14.492;2024-02-23T00:54:46;2.72;;;1.80;;
65469;SDS011;52067;50.710;14.492;2024-02-23T00:57:11;4.32;;;2.10;;
65469;SDS011;52067;50.710;14.492;2024-02-23T00:59:36;7.78;;;2.28;;
65469;SDS011;52067;50.710;14.492;2024-02-23T01:02:02;8.20;;;2.30;;
65469;SDS011;52067;50.710;14.492;2024-02-23T01:04:27;5.50;;;2.28;;
65469;SDS011;52067;50.710;14.492;2024-02-23T01:06:52;5.13;;;2.38;;
65469;SDS011;52067;50.710;14.492;2024-02-23T01:09:18;6.85;;;2.78;;
65469;SDS011;52067;50.710;14.492;2024-02-23T01:11:46;5.78;;;2.17;;
65469;SDS011;52067;50.710;14.492;2024-02-23T01:14:11;3.53;;;1.67;;
65469;SDS011;52067;50.710;14.492;2024-02-23T01:16:37;2.63;;;1.70;;
65469;SDS011;52067;50.710;14.492;2024-02-23T01:19:02;6.50;;;1.85;;
65469;SDS011;52067;50.710;14.492;2024-02-23T01:21:28;2.65;;;1.42;;
65469;SDS011;52067;50.710;14.492;2024-02-23T01:23:54;3.50;;;1.55;;
65469;SDS011;52067;50.710;14.492;2024-02-23T01:26:19;1.95;;;1.30;;
65469;SDS011;52067;50.710;14.492;2024-02-23T01:28:45;3.88;;;1.60;;
65469;SDS011;52067;50.710;14.492;2024-02-23T01:31:13;2.03;;;1.42;;
65469;SDS011;52067;50.710;14.492;2024-02-23T01:33:39;2.22;;;1.55;;
65469;SDS011;52067;50.710;14.492;2024-02-23T01:36:07;2.17;;;1.50;;
65469;SDS011;52067;50.710;14.492;2024-02-23T01:38:33;2.22;;;1.33;;
65469;SDS011;52067;50.710;14.492;2024-02-23T01:40:59;2.45;;;1.50;;
65469;SDS011;52067;50.710;14.492;2024-02-23T01:43:25;1.83;;;1.50;;
65469;SDS011;52067;50.710;14.492;2024-02-23T01:45:50;1.90;;;1.33;;
65469;SDS011;52067;50.710;14.492;2024-02-23T01:48:16;2.10;;;1.40;;
65469;SDS011;52067;50.710;14.492;2024-02-23T01:50:42;2.53;;;1.50;;
65469;SDS011;52067;50.710;14.492;2024-02-23T01:53:09;2.38;;;1.38;;
65469;SDS011;52067;50.710;14.492;2024-02-23T01:55:37;1.55;;;1.15;;
65469;SDS011;52067;50.710;14.492;2024-02-23T01:58:05;1.70;;;1.30;;
65469;SDS011;52067;50.710;14.492;2024-02-23T02:00:30;2.33;;;1.17;;
65469;SDS011;52067;50.710;14.492;2024-02-23T02:02:56;1.60;;;1.27;;
65469;SDS011;52067;50.710;14.492;2024-02-23T02:05:22;1.55;;;1.25;;
65469;SDS011;52067;50.710;14.492;2024-02-23T02:07:49;1.75;;;1.33;;
65469;SDS011;52067;50.710;14.492;2024-02-23T02:10:18;1.60;;;1.20;;
65469;SDS011;52067;50.710;14.492;2024-02-23T02:12:45;1.52;;;1.10;;
65469;SDS011;52067;50.710;14.492;2024-02-23T02:15:10;3.33;;;1.50;;
65469;SDS011;52067;50.710;14.492;2024-02-23T02:17:36;4.28;;;1.38;;
65469;SDS011;52067;50.710;14.492;2024-02-23T02:20:02;1.67;;;1.17;;
65469;SDS011;52067;50.710;14.492;2024-02-23T02:22:34;4.30;;;1.30;;
65469;SDS011;52067;50.710;14.492;2024-02-23T02:24:59;1.95;;;1.23;;
65469;SDS011;52067;50.710;14.492;2024-02-23T02:27:25;2.13;;;1.20;;
65469;SDS011;52067;50.710;14.492;2024-02-23T02:29:53;1.67;;;1.05;;
65469;SDS011;52067;50.710;14.492;2024-02-23T02:32:18;1.55;;;1.17;;
65469;SDS011;52067;50.710;14.492;2024-02-23T02:34:43;1.20;;;1.10;;
65469;SDS011;52067;50.710;14.492;2024-02-23T02:37:09;2.95;;;1.25;;
65469;SDS011;52067;50.710;14.492;2024-02-23T02:39:34;1.45;;;1.00;;
65469;SDS011;52067;50.710;14.492;2024-02-23T02:42:01;1.63;;;1.17;;
65469;SDS011;52067;50.710;14.492;2024-02-23T02:44:26;2.28;;;1.20;;
65469;SDS011;52067;50.710;14.492;2024-02-23T02:46:55;1.98;;;1.17;;
65469;SDS011;52067;50.710;14.492;2024-02-23T02:49:21;2.03;;;1.20;;
65469;SDS011;52067;50.710;14.492;2024-02-23T02:51:47;1.77;;;1.10;;
65469;SDS011;52067;50.710;14.492;2024-02-23T02:54:12;0.90;;;0.90;;
65469;SDS011;52067;50.710;14.492;2024-02-23T02:56:41;1.20;;;1.00;;
65469;SDS011;52067;50.710;14.492;2024-02-23T02:59:11;0.70;;;0.70;;
65469;SDS011;52067;50.710;14.492;2024-02-23T03:01:37;2.05;;;1.10;;
65469;SDS011;52067;50.710;14.492;2024-02-23T03:04:02;2.17;;;1.00;;
65469;SDS011;52067;50.710;14.492;2024-02-23T03:06:28;1.65;;;1.10;;
65469;SDS011;52067;50.710;14.492;2024-02-23T03:08:53;1.83;;;1.02;;
65469;SDS011;52067;50.710;14.492;2024-02-23T03:11:18;2.88;;;1.00;;
65469;SDS011;52067;50.710;14.492;2024-02-23T03:13:44;5.55;;;1.20;;
65469;SDS011;52067;50.710;14.492;2024-02-23T03:16:19;2.20;;;1.00;;
65469;SDS011;52067;50.710;14.492;2024-02-23T03:18:46;1.35;;;0.90;;
65469;SDS011;52067;50.710;14.492;2024-02-23T03:21:12;1.00;;;0.80;;
65469;SDS011;52067;50.710;14.492;2024-02-23T03:23:39;1.00;;;0.90;;
65469;SDS011;52067;50.710;14.492;2024-02-23T03:26:06;2.97;;;1.17;;
65469;SDS011;52067;50.710;14.492;2024-02-23T03:28:31;1.63;;;1.02;;
65469;SDS011;52067;50.710;14.492;2024-02-23T03:30:57;1.17;;;0.82;;
65469;SDS011;52067;50.710;14.492;2024-02-23T03:33:22;1.00;;;0.90;;
65469;SDS011;52067;50.710;14.492;2024-02-23T03:35:48;3.72;;;0.85;;
65469;SDS011;52067;50.710;14.492;2024-02-23T03:38:13;1.55;;;1.13;;
65469;SDS011;52067;50.710;14.492;2024-02-23T03:40:38;1.17;;;0.70;;
65469;SDS011;52067;50.710;14.492;2024-02-23T03:43:04;1.02;;;0.90;;
65469;SDS011;52067;50.710;14.492;2024-02-23T03:45:30;2.40;;;1.00;;
65469;SDS011;52067;50.710;14.492;2024-02-23T03:47:56;1.30;;;0.98;;
65469;SDS011;52067;50.710;14.492;2024-02-23T03:50:21;1.00;;;0.90;;
65469;SDS011;52067;50.710;14.492;2024-02-23T03:52:47;2.33;;;1.10;;
65469;SDS011;52067;50.710;14.492;2024-02-23T03:55:12;3.53;;;1.02;;
65469;SDS011;52067;50.710;14.492;2024-02-23T03:57:38;4.10;;;0.80;;
65469;SDS011;52067;50.710;14.492;2024-02-23T04:00:03;1.45;;;0.90;;
65469;SDS011;52067;50.710;14.492;2024-02-23T04:02:31;0.90;;;0.82;;
65469;SDS011;52067;50.710;14.492;2024-02-23T04:04:56;1.02;;;0.88;;
65469;SDS011;52067;50.710;14.492;2024-02-23T04:07:21;3.13;;;1.02;;
65469;SDS011;52067;50.710;14.492;2024-02-23T04:09:47;1.08;;;0.75;;
65469;SDS011;52067;50.710;14.492;2024-02-23T04:12:17;1.77;;;1.02;;
65469;SDS011;52067;50.710;14.492;2024-02-23T04:14:44;1.77;;;0.85;;
65469;SDS011;52067;50.710;14.492;2024-02-23T04:17:10;3.97;;;0.93;;
65469;SDS011;52067;50.710;14.492;2024-02-23T04:19:37;1.02;;;0.90;;
65469;SDS011;52067;50.710;14.492;2024-02-23T04:22:02;1.17;;;0.90;;
65469;SDS011;52067;50.710;14.492;2024-02-23T04:24:29;3.50;;;0.77;;
65469;SDS011;52067;50.710;14.492;2024-02-23T04:26:54;1.00;;;0.90;;
65469;SDS011;52067;50.710;14.492;2024-02-23T04:29:21;0.98;;;0.70;;
65469;SDS011;52067;50.710;14.492;2024-02-23T04:31:46;1.95;;;1.00;;
65469;SDS011;52067;50.710;14.492;2024-02-23T04:34:12;1.38;;;0.90;;
65469;SDS011;52067;50.710;14.492;2024-02-23T04:36:37;1.40;;;0.85;;
65469;SDS011;52067;50.710;14.492;2024-02-23T04:39:02;3.60;;;1.02;;
65469;SDS011;52067;50.710;14.492;2024-02-23T04:41:29;2.83;;;1.02;;
65469;SDS011;52067;50.710;14.492;2024-02-23T04:43:54;2.13;;;0.85;;
65469;SDS011;52067;50.710;14.492;2024-02-23T04:46:24;0.93;;;0.82;;
65469;SDS011;52067;50.710;14.492;2024-02-23T04:48:50;1.15;;;0.73;;
65469;SDS011;52067;50.710;14.492;2024-02-23T04:51:15;2.70;;;1.00;;
65469;SDS011;52067;50.710;14.492;2024-02-23T04:53:41;3.78;;;0.85;;
65469;SDS011;52067;50.710;14.492;2024-02-23T04:56:07;1.77;;;0.90;;
65469;SDS011;52067;50.710;14.492;2024-02-23T04:58:32;1.20;;;0.90;;
65469;SDS011;52067;50.710;14.492;2024-02-23T05:00:57;2.55;;;0.80;;
65469;SDS011;52067;50.710;14.492;2024-02-23T05:03:23;0.70;;;0.70;;
65469;SDS011;52067;50.710;14.492;2024-02-23T05:05:48;2.05;;;0.98;;
65469;SDS011;52067;50.710;14.492;2024-02-23T05:08:18;1.85;;;0.93;;
65469;SDS011;52067;50.710;14.492;2024-02-23T05:10:45;4.07;;;0.90;;
65469;SDS011;52067;50.710;14.492;2024-02-23T05:13:11;1.85;;;0.80;;
65469;SDS011;52067;50.710;14.492;2024-02-23T05:15:36;1.33;;;0.80;;
65469;SDS011;52067;50.710;14.492;2024-02-23T05:18:02;2.70;;;0.85;;
65469;SDS011;52067;50.710;14.492;2024-02-23T05:20:28;2.75;;;0.80;;
65469;SDS011;52067;50.710;14.492;2024-02-23T05:22:53;1.40;;;0.80;;
65469;SDS011;52067;50.710;14.492;2024-02-23T05:25:19;1.95;;;0.90;;
65469;SDS011;52067;50.710;14.492;2024-02-23T05:27:44;2.25;;;0.90;;
65469;SDS011;52067;50.710;14.492;2024-02-23T05:30:10;1.15;;;0.80;;
65469;SDS011;52067;50.710;14.492;2024-02-23T05:32:36;1.90;;;0.90;;
65469;SDS011;52067;50.710;14.492;2024-02-23T05:35:01;1.40;;;0.90;;
65469;SDS011;52067;50.710;14.492;2024-02-23T05:37:27;1.83;;;0.90;;
65469;SDS011;52067;50.710;14.492;2024-02-23T05:39:52;1.55;;;1.02;;
65469;SDS011;52067;50.710;14.492;2024-02-23T05:42:18;2.83;;;1.30;;
65469;SDS011;52067;50.710;14.492;2024-02-23T05:44:44;2.47;;;1.10;;
65469;SDS011;52067;50.710;14.492;2024-02-23T05:47:11;2.78;;;1.17;;
65469;SDS011;52067;50.710;14.492;2024-02-23T05:49:38;2.92;;;1.20;;
65469;SDS011;52067;50.710;14.492;2024-02-23T05:52:04;1.63;;;1.08;;
65469;SDS011;52067;50.710;14.492;2024-02-23T05:54:29;2.20;;;1.00;;
65469;SDS011;52067;50.710;14.492;2024-02-23T05:56:55;2.80;;;0.85;;
65469;SDS011;52067;50.710;14.492;2024-02-23T05:59:20;0.70;;;0.70;;
65469;SDS011;52067;50.710;14.492;2024-02-23T06:01:45;1.85;;;1.00;;
65469;SDS011;52067;50.710;14.492;2024-02-23T06:04:11;1.13;;;0.77;;
65469;SDS011;52067;50.710;14.492;2024-02-23T06:06:36;0.88;;;0.80;;
65469;SDS011;52067;50.710;14.492;2024-02-23T06:09:02;1.08;;;0.80;;
65469;SDS011;52067;50.710;14.492;2024-02-23T06:11:28;1.23;;;0.80;;
65469;SDS011;52067;50.710;14.492;2024-02-23T06:13:54;0.90;;;0.80;;
65469;SDS011;52067;50.710;14.492;2024-02-23T06:16:20;4.53;;;1.00;;
65469;SDS011;52067;50.710;14.492;2024-02-23T06:18:45;1.30;;;0.80;;
65469;SDS011;52067;50.710;14.492;2024-02-23T06:21:14;3.00;;;0.98;;
65469;SDS011;52067;50.710;14.492;2024-02-23T06:23:41;2.53;;;1.20;;
65469;SDS011;52067;50.710;14.492;2024-02-23T06:26:06;3.03;;;1.02;;
65469;SDS011;52067;50.710;14.492;2024-02-23T06:28:32;1.55;;;0.98;;
65469;SDS011;52067;50.710;14.492;2024-02-23T06:30:58;1.40;;;1.00;;
65469;SDS011;52067;50.710;14.492;2024-02-23T06:33:23;1.42;;;1.02;;
65469;SDS011;52067;50.710;14.492;2024-02-23T06:35:49;2.17;;;1.27;;
65469;SDS011;52067;50.710;14.492;2024-02-23T06:38:15;1.75;;;1.02;;
65469;SDS011;52067;50.710;14.492;2024-02-23T06:40:40;2.22;;;1.30;;
65469;SDS011;52067;50.710;14.492;2024-02-23T06:43:06;1.63;;;1.17;;
65469;SDS011;52067;50.710;14.492;2024-02-23T06:45:31;2.80;;;1.10;;
65469;SDS011;52067;50.710;14.492;2024-02-23T06:47:56;1.20;;;0.90;;
65469;SDS011;52067;50.710;14.492;2024-02-23T06:50:22;4.38;;;1.20;;
65469;SDS011;52067;50.710;14.492;2024-02-23T06:52:47;2.22;;;1.20;;
65469;SDS011;52067;50.710;14.492;2024-02-23T06:55:14;2.03;;;1.20;;
65469;SDS011;52067;50.710;14.492;2024-02-23T06:57:40;2.08;;;1.20;;
65469;SDS011;52067;50.710;14.492;2024-02-23T07:00:05;2.10;;;1.30;;
65469;SDS011;52067;50.710;14.492;2024-02-23T07:02:32;3.40;;;1.25;;
65469;SDS011;52067;50.710;14.492;2024-02-23T07:05:01;2.33;;;1.20;;
65469;SDS011;52067;50.710;14.492;2024-02-23T07:07:29;2.92;;;1.20;;
65469;SDS011;52067;50.710;14.492;2024-02-23T07:09:55;1.33;;;1.02;;
65469;SDS011;52067;50.710;14.492;2024-02-23T07:12:21;2.40;;;1.05;;
65469;SDS011;52067;50.710;14.492;2024-02-23T07:14:46;1.77;;;1.00;;
65469;SDS011;52067;50.710;14.492;2024-02-23T07:17:11;3.38;;;1.20;;
65469;SDS011;52067;50.710;14.492;2024-02-23T07:19:37;2.47;;;1.30;;
65469;SDS011;52067;50.710;14.492;2024-02-23T07:22:02;2.55;;;1.30;;
65469;SDS011;52067;50.710;14.492;2024-02-23T07:24:28;3.38;;;1.25;;
65469;SDS011;52067;50.710;14.492;2024-02-23T07:26:53;3.17;;;1.38;;
65469;SDS011;52067;50.710;14.492;2024-02-23T07:29:18;1.85;;;1.13;;
65469;SDS011;52067;50.710;14.492;2024-02-23T07:31:44;3.05;;;1.30;;
65469;SDS011;52067;50.710;14.492;2024-02-23T07:34:10;6.20;;;1.48;;
65469;SDS011;52067;50.710;14.492;2024-02-23T07:36:35;2.22;;;1.20;;
65469;SDS011;52067;50.710;14.492;2024-02-23T07:39:00;1.48;;;0.90;;
65469;SDS011;52067;50.710;14.492;2024-02-23T07:41:26;1.92;;;1.13;;
65469;SDS011;52067;50.710;14.492;2024-02-23T07:43:51;2.70;;;1.30;;
65469;SDS011;52067;50.710;14.492;2024-02-23T07:46:17;4.05;;;1.17;;
65469;SDS011;52067;50.710;14.492;2024-02-23T07:48:42;2.13;;;0.95;;
65469;SDS011;52067;50.710;14.492;2024-02-23T07:51:07;3.67;;;1.00;;
65469;SDS011;52067;50.710;14.492;2024-02-23T07:53:33;1.30;;;0.95;;
65469;SDS011;52067;50.710;14.492;2024-02-23T07:55:59;2.25;;;1.00;;
65469;SDS011;52067;50.710;14.492;2024-02-23T07:58:27;1.40;;;1.08;;
65469;SDS011;52067;50.710;14.492;2024-02-23T08:00:52;1.73;;;0.98;;
65469;SDS011;52067;50.710;14.492;2024-02-23T08:03:18;1.35;;;0.80;;
65469;SDS011;52067;50.710;14.492;2024-02-23T08:05:43;2.33;;;0.90;;
65469;SDS011;52067;50.710;14.492;2024-02-23T08:08:09;1.45;;;0.80;;
65469;SDS011;52067;50.710;14.492;2024-02-23T08:10:34;0.77;;;0.73;;
65469;SDS011;52067;50.710;14.492;2024-02-23T08:13:00;1.10;;;0.90;;
65469;SDS011;52067;50.710;14.492;2024-02-23T08:15:25;1.42;;;0.88;;
65469;SDS011;52067;50.710;14.492;2024-02-23T08:17:50;2.85;;;0.93;;
65469;SDS011;52067;50.710;14.492;2024-02-23T08:20:16;2.45;;;1.00;;
65469;SDS011;52067;50.710;14.492;2024-02-23T08:22:41;0.95;;;0.75;;
65469;SDS011;52067;50.710;14.492;2024-02-23T08:25:07;1.38;;;0.95;;
65469;SDS011;52067;50.710;14.492;2024-02-23T08:27:33;1.10;;;0.90;;
65469;SDS011;52067;50.710;14.492;2024-02-23T08:29:58;2.05;;;1.10;;
65469;SDS011;52067;50.710;14.492;2024-02-23T08:32:24;1.25;;;0.80;;
65469;SDS011;52067;50.710;14.492;2024-02-23T08:34:49;1.48;;;1.00;;
65469;SDS011;52067;50.710;14.492;2024-02-23T08:37:17;2.63;;;1.10;;
65469;SDS011;52067;50.710;14.492;2024-02-23T08:39:43;1.70;;;1.10;;
65469;SDS011;52067;50.710;14.492;2024-02-23T08:42:09;3.75;;;1.02;;
65469;SDS011;52067;50.710;14.492;2024-02-23T08:44:34;2.13;;;1.00;;
65469;SDS011;52067;50.710;14.492;2024-02-23T08:47:00;2.28;;;0.90;;
65469;SDS011;52067;50.710;14.492;2024-02-23T08:49:26;1.10;;;0.90;;
65469;SDS011;52067;50.710;14.492;2024-02-23T08:51:52;5.47;;;1.13;;
65469;SDS011;52067;50.710;14.492;2024-02-23T08:54:17;2.67;;;1.00;;
65469;SDS011;52067;50.710;14.492;2024-02-23T08:56:43;1.23;;;1.00;;
65469;SDS011;52067;50.710;14.492;2024-02-23T08:59:08;0.98;;;0.90;;
65469;SDS011;52067;50.710;14.492;2024-02-23T09:01:34;2.30;;;1.30;;
65469;SDS011;52067;50.710;14.492;2024-02-23T09:04:00;0.90;;;0.90;;
65469;SDS011;52067;50.710;14.492;2024-02-23T09:06:26;3.60;;;1.20;;
65469;SDS011;52067;50.710;14.492;2024-02-23T09:08:51;3.92;;;1.20;;
65469;SDS011;52067;50.710;14.492;2024-02-23T09:11:17;2.83;;;1.10;;
65469;SDS011;52067;50.710;14.492;2024-02-23T09:13:42;3.50;;;1.27;;
65469;SDS011;52067;50.710;14.492;2024-02-23T09:16:08;2.08;;;1.15;;
65469;SDS011;52067;50.710;14.492;2024-02-23T09:18:34;2.35;;;1.20;;
65469;SDS011;52067;50.710;14.492;2024-02-23T09:20:59;2.80;;;1.10;;
65469;SDS011;52067;50.710;14.492;2024-02-23T09:23:25;2.75;;;1.30;;
65469;SDS011;52067;50.710;14.492;2024-02-23T09:25:51;1.58;;;1.13;;
65469;SDS011;52067;50.710;14.492;2024-02-23T09:28:16;2.45;;;1.10;;
65469;SDS011;52067;50.710;14.492;2024-02-23T09:30:41;2.53;;;1.42;;
65469;SDS011;52067;50.710;14.492;2024-02-23T09:33:07;3.47;;;1.23;;
65469;SDS011;52067;50.710;14.492;2024-02-23T09:35:33;2.65;;;1.10;;
65469;SDS011;52067;50.710;14.492;2024-02-23T09:37:58;2.55;;;1.30;;
65469;SDS011;52067;50.710;14.492;2024-02-23T09:40:24;2.72;;;1.40;;
65469;SDS011;52067;50.710;14.492;2024-02-23T09:42:56;2.00;;;1.20;;
65469;SDS011;52067;50.710;14.492;2024-02-23T09:45:22;1.70;;;1.20;;
65469;SDS011;52067;50.710;14.492;2024-02-23T09:47:50;1.90;;;1.30;;
65469;SDS011;52067;50.710;14.492;2024-02-23T09:50:17;3.85;;;1.30;;
65469;SDS011;52067;50.710;14.492;2024-02-23T09:52:44;3.33;;;1.33;;
65469;SDS011;52067;50.710;14.492;2024-02-23T09:55:12;2.83;;;1.35;;
65469;SDS011;52067;50.710;14.492;2024-02-23T09:57:37;2.22;;;1.30;;
65469;SDS011;52067;50.710;14.492;2024-02-23T10:00:03;2.08;;;1.20;;
65469;SDS011;52067;50.710;14.492;2024-02-23T10:02:31;3.50;;;1.50;;
65469;SDS011;52067;50.710;14.492;2024-02-23T10:04:57;2.65;;;1.20;;
65469;SDS011;52067;50.710;14.492;2024-02-23T10:07:25;2.97;;;1.27;;
65469;SDS011;52067;50.710;14.492;2024-02-23T10:09:50;2.90;;;1.20;;
65469;SDS011;52067;50.710;14.492;2024-02-23T10:12:16;1.60;;;1.00;;
65469;SDS011;52067;50.710;14.492;2024-02-23T10:14:41;2.15;;;1.30;;
65469;SDS011;52067;50.710;14.492;2024-02-23T10:17:07;3.00;;;1.20;;
65469;SDS011;52067;50.710;14.492;2024-02-23T10:19:33;1.88;;;1.17;;
65469;SDS011;52067;50.710;14.492;2024-02-23T10:21:59;2.70;;;1.30;;
65469;SDS011;52067;50.710;14.492;2024-02-23T10:24:24;2.88;;;1.20;;
65469;SDS011;52067;50.710;14.492;2024-02-23T10:26:50;2.97;;;1.50;;
65469;SDS011;52067;50.710;14.492;2024-02-23T10:29:17;1.38;;;1.00;;
65469;SDS011;52067;50.710;14.492;2024-02-23T10:31:42;3.08;;;1.10;;
65469;SDS011;52067;50.710;14.492;2024-02-23T10:34:12;5.25;;;1.05;;
65469;SDS011;52067;50.710;14.492;2024-02-23T10:36:40;2.22;;;1.20;;
65469;SDS011;52067;50.710;14.492;2024-02-23T10:39:07;1.88;;;1.10;;
65469;SDS011;52067;50.710;14.492;2024-02-23T10:41:37;1.75;;;1.17;;
65469;SDS011;52067;50.710;14.492;2024-02-23T10:44:08;3.45;;;1.45;;
65469;SDS011;52067;50.710;14.492;2024-02-23T10:46:34;3.22;;;1.20;;
65469;SDS011;52067;50.710;14.492;2024-02-23T10:49:00;3.22;;;1.50;;
65469;SDS011;52067;50.710;14.492;2024-02-23T10:51:26;4.05;;;1.20;;
65469;SDS011;52067;50.710;14.492;2024-02-23T10:53:52;4.53;;;1.30;;
65469;SDS011;52067;50.710;14.492;2024-02-23T10:56:18;1.33;;;1.00;;
65469;SDS011;52067;50.710;14.492;2024-02-23T10:58:43;2.80;;;1.20;;
65469;SDS011;52067;50.710;14.492;2024-02-23T11:01:09;4.15;;;1.10;;
65469;SDS011;52067;50.710;14.492;2024-02-23T11:03:35;3.13;;;1.40;;
65469;SDS011;52067;50.710;14.492;2024-02-23T11:06:05;3.53;;;1.20;;
65469;SDS011;52067;50.710;14.492;2024-02-23T11:08:35;6.00;;;1.20;;
65469;SDS011;52067;50.710;14.492;2024-02-23T11:11:10;2.78;;;1.00;;
65469;SDS011;52067;50.710;14.492;2024-02-23T11:13:37;2.80;;;1.15;;
65469;SDS011;52067;50.710;14.492;2024-02-23T11:16:03;3.35;;;1.40;;
65469;SDS011;52067;50.710;14.492;2024-02-23T11:18:30;2.22;;;1.38;;
65469;SDS011;52067;50.710;14.492;2024-02-23T11:20:59;1.13;;;0.98;;
65469;SDS011;52067;50.710;14.492;2024-02-23T11:23:26;2.70;;;1.15;;
65469;SDS011;52067;50.710;14.492;2024-02-23T11:25:59;2.55;;;1.02;;
65469;SDS011;52067;50.710;14.492;2024-02-23T11:28:48;2.90;;;1.27;;
65469;SDS011;52067;50.710;14.492;2024-02-23T11:31:25;3.00;;;1.30;;
65469;SDS011;52067;50.710;14.492;2024-02-23T11:33:54;2.65;;;1.38;;
65469;SDS011;52067;50.710;14.492;2024-02-23T11:36:30;2.28;;;1.10;;
65469;SDS011;52067;50.710;14.492;2024-02-23T11:38:57;1.67;;;1.20;;
65469;SDS011;52067;50.710;14.492;2024-02-23T11:41:25;2.97;;;1.00;;
65469;SDS011;52067;50.710;14.492;2024-02-23T11:43:52;2.33;;;1.05;;
65469;SDS011;52067;50.710;14.492;2024-02-23T11:46:18;1.70;;;1.00;;
65469;SDS011;52067;50.710;14.492;2024-02-23T11:48:44;1.42;;;1.10;;
65469;SDS011;52067;50.710;14.492;2024-02-23T11:51:11;4.22;;;1.13;;
65469;SDS011;52067;50.710;14.492;2024-02-23T11:53:38;5.43;;;1.40;;
65469;SDS011;52067;50.710;14.492;2024-02-23T11:56:04;4.65;;;1.20;;
65469;SDS011;52067;50.710;14.492;2024-02-23T11:58:30;2.33;;;1.30;;
65469;SDS011;52067;50.710;14.492;2024-02-23T12:00:57;3.13;;;1.13;;
65469;SDS011;52067;50.710;14.492;2024-02-23T12:03:23;3.42;;;1.20;;
65469;SDS011;52067;50.710;14.492;2024-02-23T12:05:50;4.40;;;1.35;;
65469;SDS011;52067;50.710;14.492;2024-02-23T12:08:15;2.70;;;1.10;;
65469;SDS011;52067;50.710;14.492;2024-02-23T12:10:42;2.10;;;1.30;;
65469;SDS011;52067;50.710;14.492;2024-02-23T12:13:08;1.73;;;0.90;;
65469;SDS011;52067;50.710;14.492;2024-02-23T12:15:33;1.90;;;1.00;;
65469;SDS011;52067;50.710;14.492;2024-02-23T12:17:59;2.97;;;1.00;;
65469;SDS011;52067;50.710;14.492;2024-02-23T12:20:27;1.67;;;1.00;;
65469;SDS011;52067;50.710;14.492;2024-02-23T12:22:54;2.47;;;1.17;;
65469;SDS011;52067;50.710;14.492;2024-02-23T12:25:20;1.92;;;1.00;;
65469;SDS011;52067;50.710;14.492;2024-02-23T12:27:46;1.50;;;1.10;;
65469;SDS011;52067;50.710;14.492;2024-02-23T12:30:15;2.78;;;1.20;;
65469;SDS011;52067;50.710;14.492;2024-02-23T12:32:42;3.45;;;1.20;;
65469;SDS011;52067;50.710;14.492;2024-02-23T12:35:10;1.38;;;0.95;;
65469;SDS011;52067;50.710;14.492;2024-02-23T12:37:36;2.15;;;1.27;;
65469;SDS011;52067;50.710;14.492;2024-02-23T12:40:02;1.90;;;1.23;;
65469;SDS011;52067;50.710;14.492;2024-02-23T12:42:27;2.20;;;1.20;;
65469;SDS011;52067;50.710;14.492;2024-02-23T12:44:53;2.53;;;1.00;;
65469;SDS011;52067;50.710;14.492;2024-02-23T12:47:18;1.98;;;0.98;;
65469;SDS011;52067;50.710;14.492;2024-02-23T12:49:43;2.63;;;1.10;;
65469;SDS011;52067;50.710;14.492;2024-02-23T12:52:09;5.13;;;1.20;;
65469;SDS011;52067;50.710;14.492;2024-02-23T12:54:35;1.95;;;1.00;;
65469;SDS011;52067;50.710;14.492;2024-02-23T12:57:00;1.95;;;1.10;;
65469;SDS011;52067;50.710;14.492;2024-02-23T12:59:25;2.88;;;1.20;;
65469;SDS011;52067;50.710;14.492;2024-02-23T13:01:51;1.65;;;1.17;;
65469;SDS011;52067;50.710;14.492;2024-02-23T13:04:16;2.17;;;1.10;;
65469;SDS011;52067;50.710;14.492;2024-02-23T13:06:42;3.75;;;1.27;;
65469;SDS011;52067;50.710;14.492;2024-02-23T13:09:07;2.65;;;1.20;;
65469;SDS011;52067;50.710;14.492;2024-02-23T13:11:34;1.25;;;1.10;;
65469;SDS011;52067;50.710;14.492;2024-02-23T13:14:00;2.10;;;1.10;;
65469;SDS011;52067;50.710;14.492;2024-02-23T13:16:25;2.22;;;1.25;;
65469;SDS011;52067;50.710;14.492;2024-02-23T13:18:51;2.42;;;1.13;;
65469;SDS011;52067;50.710;14.492;2024-02-23T13:21:17;1.50;;;1.05;;
65469;SDS011;52067;50.710;14.492;2024-02-23T13:23:43;1.90;;;1.20;;
65469;SDS011;52067;50.710;14.492;2024-02-23T13:26:08;2.97;;;1.42;;
65469;SDS011;52067;50.710;14.492;2024-02-23T13:28:35;2.65;;;1.20;;
65469;SDS011;52067;50.710;14.492;2024-02-23T13:31:01;2.47;;;1.30;;
65469;SDS011;52067;50.710;14.492;2024-02-23T13:33:27;4.55;;;1.40;;
65469;SDS011;52067;50.710;14.492;2024-02-23T13:35:53;3.20;;;1.48;;
65469;SDS011;52067;50.710;14.492;2024-02-23T13:38:20;2.78;;;1.40;;
65469;SDS011;52067;50.710;14.492;2024-02-23T13:40:45;2.47;;;1.20;;
65469;SDS011;52067;50.710;14.492;2024-02-23T13:43:11;2.60;;;1.63;;
65469;SDS011;52067;50.710;14.492;2024-02-23T13:45:47;2.83;;;1.30;;
65469;SDS011;52067;50.710;14.492;2024-02-23T13:48:15;2.75;;;1.40;;
65469;SDS011;52067;50.710;14.492;2024-02-23T13:50:41;2.28;;;1.17;;
65469;SDS011;52067;50.710;14.492;2024-02-23T13:53:07;1.67;;;1.30;;
65469;SDS011;52067;50.710;14.492;2024-02-23T13:55:32;3.78;;;1.30;;
65469;SDS011;52067;50.710;14.492;2024-02-23T13:57:57;1.92;;;1.25;;
65469;SDS011;52067;50.710;14.492;2024-02-23T14:00:23;3.78;;;1.40;;
65469;SDS011;52067;50.710;14.492;2024-02-23T14:02:48;3.47;;;1.30;;
65469;SDS011;52067;50.710;14.492;2024-02-23T14:05:14;2.80;;;1.20;;
65469;SDS011;52067;50.710;14.492;2024-02-23T14:07:40;3.67;;;1.60;;
65469;SDS011;52067;50.710;14.492;2024-02-23T14:10:06;4.70;;;1.38;;
65469;SDS011;52067;50.710;14.492;2024-02-23T14:12:32;3.55;;;1.50;;
65469;SDS011;52067;50.710;14.492;2024-02-23T14:14:57;3.67;;;1.33;;
65469;SDS011;52067;50.710;14.492;2024-02-23T14:17:23;2.30;;;1.10;;
65469;SDS011;52067;50.710;14.492;2024-02-23T14:19:49;5.47;;;1.20;;
65469;SDS011;52067;50.710;14.492;2024-02-23T14:22:15;2.00;;;1.10;;
65469;SDS011;52067;50.710;14.492;2024-02-23T14:24:41;3.00;;;1.38;;
65469;SDS011;52067;50.710;14.492;2024-02-23T14:27:06;2.50;;;1.30;;